Time;durP1;ratioP1;P1;durP2;ratioP2;P2;SDS_P1;SDS_P2;PMS_P1;PMS_P2;Temp;Humidity;BMP_temperature;BMP_pressure;BME280_temperature;BME280_humidity;BME280_pressure;Samples;Min_cycle;Max_cycle;Signal;HPM_P1;HPM_P2
2023/03/26 00:01:45;;;;;;;;;1.00;1.00;;;;;8.89;74.09;99031.97;6328538;20;1809810;-54
2023/03/26 00:04:18;;;;;;;;;3.50;1.00;;;;;8.81;74.91;99040.50;6331092;20;1809827;-54
2023/03/26 00:06:47;;;;;;;;;3.50;2.00;;;;;8.64;75.76;99030.91;6316307;20;2748197;-49
2023/03/26 00:09:17;;;;;;;;;4.00;3.00;;;;;8.60;76.25;99029.34;6284071;20;2756654;-54
2023/03/26 00:11:46;;;;;;;;;2.00;2.00;;;;;8.55;76.24;99028.78;6298313;20;1802397;-54
2023/03/26 00:14:16;;;;;;;;;1.25;1.25;;;;;8.60;76.35;99023.16;6330769;20;1803974;-53
2023/03/26 00:16:46;;;;;;;;;3.00;2.00;;;;;8.51;76.27;99012.09;6316052;20;2752421;-51
2023/03/26 00:19:15;;;;;;;;;2.00;1.00;;;;;8.55;76.62;99020.75;6300584;20;1803564;-53
2023/03/26 00:21:44;;;;;;;;;1.00;1.00;;;;;8.55;76.71;99016.25;6329558;20;1808768;-50
2023/03/26 00:24:14;;;;;;;;;0.75;0.75;;;;;8.40;76.25;99019.06;6331431;20;1807732;-53
2023/03/26 00:26:47;;;;;;;;;0.25;0.25;;;;;8.23;78.07;98998.72;6334357;20;1805314;-50
2023/03/26 00:29:16;;;;;;;;;1.50;0.75;;;;;8.10;78.23;98996.78;6331673;20;1809748;-54
2023/03/26 00:31:45;;;;;;;;;1.00;1.00;;;;;8.18;78.59;98993.66;6336420;20;1802423;-51
2023/03/26 00:34:17;;;;;;;;;1.00;1.00;;;;;7.86;79.50;98992.97;6331901;20;1802422;-53
2023/03/26 00:36:46;;;;;;;;;0.00;0.00;;;;;8.06;79.11;98992.63;6330074;20;1807688;-53
2023/03/26 00:39:16;;;;;;;;;1.00;1.00;;;;;7.96;80.28;98993.28;6332175;20;1803506;-50
2023/03/26 00:41:45;;;;;;;;;0.50;0.50;;;;;7.92;79.72;98989.91;6328966;20;1812923;-53
2023/03/26 00:44:13;;;;;;;;;1.00;1.00;;;;;7.77;80.86;98994.41;6332537;20;1803552;-52
2023/03/26 00:46:42;;;;;;;;;0.50;0.50;;;;;7.87;80.29;98994.69;6331214;20;1809698;-51
2023/03/26 00:49:13;;;;;;;;;1.00;1.00;;;;;7.87;81.00;99000.03;6331329;20;1804489;-54
2023/03/26 00:51:42;;;;;;;;;0.25;0.25;;;;;7.83;81.11;99003.88;6328741;20;1803890;-50
2023/03/26 00:54:11;;;;;;;;;0.00;0.00;;;;;7.78;81.37;99011.31;6328399;20;1802385;-55
2023/03/26 00:56:40;;;;;;;;;0.50;0.25;;;;;7.76;81.32;99013.19;6330751;20;1803428;-53
2023/03/26 00:59:08;;;;;;;;;0.00;0.00;;;;;7.79;81.08;99013.00;6337366;20;1803877;-54
2023/03/26 01:01:37;;;;;;;;;0.00;0.00;;;;;7.84;80.50;99018.94;6335321;20;1803421;-53
2023/03/26 01:04:30;;;;;;;;;1.50;0.25;;;;;7.78;81.14;99006.81;6337844;20;1809761;-52
2023/03/26 01:07:20;;;;;;;;;0.00;0.00;;;;;7.79;80.97;99010.34;6335602;20;1805520;-53
2023/03/26 01:09:51;;;;;;;;;0.00;0.00;;;;;7.74;81.20;99004.41;6316771;20;3446118;-54
2023/03/26 01:12:25;;;;;;;;;0.00;0.00;;;;;7.74;81.46;99004.41;6305023;20;1809113;-53
2023/03/26 01:14:59;;;;;;;;;0.50;0.00;;;;;7.76;81.04;98997.16;6334061;20;1807429;-50
2023/03/26 01:17:32;;;;;;;;;1.00;1.00;;;;;7.90;79.70;98997.19;6333506;20;1809726;-52
2023/03/26 01:20:19;;;;;;;;;1.25;1.00;;;;;7.82;80.02;98992.31;6336753;20;1809640;-53
2023/03/26 01:22:56;;;;;;;;;1.00;0.00;;;;;7.86;80.12;98977.81;6332723;20;1803197;-53
2023/03/26 01:25:37;;;;;;;;;0.00;0.00;;;;;7.93;78.73;98975.63;6334900;20;1807690;-54
2023/03/26 01:28:11;;;;;;;;;0.50;0.50;;;;;7.65;80.06;98979.97;6335134;20;1802399;-50
2023/03/26 01:31:23;;;;;;;;;1.50;0.75;;;;;7.69;79.76;98981.53;6332798;20;1805510;-51
2023/03/26 01:34:11;;;;;;;;;0.00;0.00;;;;;7.64;79.98;98983.63;6334820;20;1804451;-54
2023/03/26 01:36:56;;;;;;;;;0.00;0.00;;;;;7.65;79.76;98984.47;6336634;20;1802507;-53
2023/03/26 01:39:37;;;;;;;;;1.50;1.00;;;;;7.57;80.23;98970.72;6317721;20;2745133;-50
2023/03/26 01:42:14;;;;;;;;;0.00;0.00;;;;;7.58;80.48;98984.00;6331629;20;1803431;-50
2023/03/26 01:45:13;;;;;;;;;0.00;0.00;;;;;7.35;80.96;98971.16;6332250;20;1807577;-51
2023/03/26 01:47:44;;;;;;;;;2.00;0.00;;;;;7.55;80.86;98981.47;6334254;20;1802346;-52
2023/03/26 01:50:13;;;;;;;;;0.00;0.00;;;;;7.48;80.74;98985.50;6332093;20;1805534;-50
2023/03/26 01:52:42;;;;;;;;;0.50;0.50;;;;;7.70;79.77;98985.03;6332355;20;1804467;-55
2023/03/26 01:55:13;;;;;;;;;2.25;1.00;;;;;7.53;80.65;98991.44;6334317;20;1813676;-53
2023/03/26 01:57:50;;;;;;;;;1.25;1.25;;;;;7.46;81.20;98979.38;6334249;20;1805247;-51
2023/03/26 02:00:34;;;;;;;;;1.00;1.00;;;;;7.46;81.13;98984.72;6333670;20;1802392;-52
2023/03/26 02:03:21;;;;;;;;;0.50;0.50;;;;;7.44;81.35;98991.97;6332056;20;1805497;-53
2023/03/26 02:06:16;;;;;;;;;1.00;1.00;;;;;7.57;80.73;98982.25;6331728;20;1807730;-51
2023/03/26 02:09:06;;;;;;;;;1.00;1.00;;;;;7.39;81.83;98986.03;6330675;20;1803581;-53
2023/03/26 02:11:38;;;;;;;;;0.25;0.25;;;;;7.23;81.91;98978.94;6331693;20;1803476;-53
2023/03/26 02:14:08;;;;;;;;;2.50;1.00;;;;;7.11;82.49;98990.34;6333126;20;1799763;-52
2023/03/26 02:16:37;;;;;;;;;1.00;1.00;;;;;7.12;83.46;98986.72;6333928;20;1810814;-53
2023/03/26 02:19:14;;;;;;;;;1.00;1.00;;;;;6.92;82.70;98974.53;6333507;20;1806236;-52
2023/03/26 02:21:42;;;;;;;;;1.00;1.00;;;;;6.93;83.44;98980.75;6314519;20;3435739;-51
2023/03/26 02:24:10;;;;;;;;;3.33;1.00;;;;;7.03;83.15;98976.59;6317243;20;3439983;-50
2023/03/26 02:26:39;;;;;;;;;1.00;1.00;;;;;7.03;83.58;98973.94;6334936;20;1803480;-54
2023/03/26 02:29:08;;;;;;;;;1.75;1.50;;;;;7.12;82.94;98981.38;6332533;20;1809207;-53
2023/03/26 02:31:37;;;;;;;;;0.00;0.00;;;;;7.26;82.39;98977.88;6331874;20;1809748;-52
2023/03/26 02:34:05;;;;;;;;;2.00;0.00;;;;;7.26;82.83;98984.09;6333458;20;1805513;-52
2023/03/26 02:36:34;;;;;;;;;0.75;0.75;;;;;7.28;82.72;98989.34;6333952;20;1803452;-51
2023/03/26 02:39:04;;;;;;;;;0.75;0.75;;;;;7.39;81.97;98989.56;6335751;20;1805536;-53
2023/03/26 02:41:33;;;;;;;;;0.00;0.00;;;;;7.48;81.72;99004.19;6331839;20;1803406;-54
2023/03/26 02:44:02;;;;;;;;;0.75;0.75;;;;;7.50;81.33;99002.28;6331150;20;1807620;-51
2023/03/26 02:46:31;;;;;;;;;0.00;0.00;;;;;7.62;80.80;99004.22;6317565;20;3438793;-55
2023/03/26 02:49:00;;;;;;;;;0.50;0.00;;;;;7.67;80.57;99009.28;6303395;20;1802438;-55
2023/03/26 02:51:28;;;;;;;;;0.00;0.00;;;;;7.73;80.36;99008.03;6332358;20;1802386;-53
2023/03/26 02:53:56;;;;;;;;;0.67;0.00;;;;;7.70;80.17;99004.59;6318908;20;3437867;-53
2023/03/26 02:56:25;;;;;;;;;0.00;0.00;;;;;7.76;80.13;98997.16;6301089;20;1809802;-52
2023/03/26 02:58:54;;;;;;;;;0.25;0.25;;;;;7.74;79.99;98999.06;6334490;20;1802503;-54
2023/03/26 03:01:22;;;;;;;;;0.00;0.00;;;;;7.74;79.83;98996.41;6332228;20;1804896;-50
2023/03/26 03:03:50;;;;;;;;;2.00;0.00;;;;;7.83;79.48;98998.53;6316152;20;3436118;-53
2023/03/26 03:06:18;;;;;;;;;0.00;0.00;;;;;7.67;80.35;99001.28;6318602;20;3439814;-51
2023/03/26 03:08:46;;;;;;;;;1.00;1.00;;;;;7.65;80.20;98996.00;6288256;20;3434654;-53
2023/03/26 03:11:20;;;;;;;;;1.25;1.00;;;;;7.53;80.56;99002.13;6333136;20;1803449;-55
2023/03/26 03:13:50;;;;;;;;;0.75;0.75;;;;;7.43;81.77;99003.63;6332988;20;1807664;-55
2023/03/26 03:16:19;;;;;;;;;0.75;0.75;;;;;7.41;82.07;99002.84;6334522;20;1803522;-55
2023/03/26 03:18:53;;;;;;;;;2.00;1.00;;;;;7.40;82.47;99001.13;6330378;20;1809771;-53
2023/03/26 03:21:28;;;;;;;;;1.00;1.00;;;;;7.32;82.09;98998.03;6330793;20;1803400;-51
2023/03/26 03:23:57;;;;;;;;;2.00;1.00;;;;;7.24;82.15;98996.69;6332111;20;1809069;-54
2023/03/26 03:26:28;;;;;;;;;1.00;0.00;;;;;7.25;82.62;98997.53;6317846;20;3433625;-50
2023/03/26 03:28:57;;;;;;;;;1.00;1.00;;;;;7.38;82.17;98987.00;6317412;20;3436781;-53
2023/03/26 03:31:27;;;;;;;;;1.00;1.00;;;;;7.39;81.74;98988.72;6316405;20;3431517;-52
2023/03/26 03:33:55;;;;;;;;;3.33;1.00;;;;;7.32;81.96;98987.34;6313878;20;3433609;-49
2023/03/26 03:36:23;;;;;;;;;1.00;1.00;;;;;7.22;82.65;98993.25;6317724;20;3432590;-50
2023/03/26 03:38:51;;;;;;;;;0.50;0.50;;;;;7.39;81.32;98984.22;6330725;20;1809740;-54
2023/03/26 03:41:20;;;;;;;;;1.00;1.00;;;;;7.35;81.11;98974.69;6332899;20;1805623;-51
2023/03/26 03:43:47;;;;;;;;;1.00;1.00;;;;;7.38;80.85;98987.84;6315388;20;3426385;-55
2023/03/26 03:46:16;;;;;;;;;1.00;1.00;;;;;7.45;80.80;98983.88;6332292;20;1802420;-54
2023/03/26 03:48:48;;;;;;;;;1.50;0.00;;;;;7.35;81.24;98989.84;6325970;20;1805649;-49
2023/03/26 03:51:17;;;;;;;;;1.00;1.00;;;;;7.31;81.21;98988.31;6313203;20;3440926;-52
2023/03/26 03:53:46;;;;;;;;;2.00;2.00;;;;;7.18;81.94;98997.03;6333991;20;1836833;-50
2023/03/26 03:56:17;;;;;;;;;3.00;1.00;;;;;7.12;82.14;98994.72;6332113;20;1816024;-53
2023/03/26 03:58:46;;;;;;;;;1.00;1.00;;;;;7.14;82.58;98986.66;6334139;20;1803129;-53
2023/03/26 04:01:16;;;;;;;;;1.50;1.50;;;;;7.00;83.24;98987.44;6332103;20;1809687;-52
2023/03/26 04:03:45;;;;;;;;;1.00;1.00;;;;;6.98;83.01;98989.34;6313180;20;3442014;-52
2023/03/26 04:06:17;;;;;;;;;3.00;2.00;;;;;6.99;83.23;98985.72;6301945;20;1811771;-53
2023/03/26 04:08:46;;;;;;;;;1.00;1.00;;;;;6.90;83.79;98983.56;6315007;20;3435816;-52
2023/03/26 04:11:14;;;;;;;;;1.00;1.00;;;;;6.94;83.26;98982.47;6313818;20;3446098;-50
2023/03/26 04:13:42;;;;;;;;;1.00;1.00;;;;;7.03;82.74;98988.13;6285310;20;3448192;-54
2023/03/26 04:16:11;;;;;;;;;1.75;1.00;;;;;6.96;82.90;98986.75;6301748;20;1809702;-55
2023/03/26 04:18:40;;;;;;;;;1.00;1.00;;;;;6.99;82.57;98983.06;6332011;20;1810779;-53
2023/03/26 04:21:11;;;;;;;;;1.00;1.00;;;;;6.94;83.45;98993.13;6330767;20;1807616;-53
2023/03/26 04:23:39;;;;;;;;;1.33;1.33;;;;;6.98;82.99;99000.03;6315879;20;3429432;-51
2023/03/26 04:26:18;;;;;;;;;2.00;2.00;;;;;6.92;83.38;98995.88;6331451;20;1820097;-54
2023/03/26 04:29:02;;;;;;;;;1.00;1.00;;;;;6.94;83.07;98987.78;6329996;20;1806564;-54
2023/03/26 04:31:30;;;;;;;;;2.00;2.00;;;;;6.92;83.24;98992.34;6309283;20;2747153;-53
2023/03/26 04:34:13;;;;;;;;;2.00;2.00;;;;;6.79;83.74;98993.09;6332892;20;1819171;-53
2023/03/26 04:36:41;;;;;;;;;3.00;2.00;;;;;6.81;84.39;98998.31;6311060;20;2746130;-51
2023/03/26 04:39:12;;;;;;;;;1.75;1.75;;;;;6.84;84.30;98995.47;6327691;20;1822281;-50
2023/03/26 04:41:40;;;;;;;;;1.67;1.00;;;;;6.99;83.49;99001.75;6309582;20;3437760;-54
2023/03/26 04:44:08;;;;;;;;;3.75;2.25;;;;;6.93;83.73;99015.44;6329272;20;1813043;-52
2023/03/26 04:46:37;;;;;;;;;3.25;3.25;;;;;6.91;83.51;99006.66;6331383;20;1810817;-52
2023/03/26 04:49:06;;;;;;;;;4.75;3.00;;;;;6.75;84.08;99010.19;6330541;20;1813928;-50
2023/03/26 04:51:40;;;;;;;;;3.25;2.00;;;;;6.51;84.87;99007.13;6327864;20;1825323;-51
2023/03/26 04:54:23;;;;;;;;;3.00;3.00;;;;;6.57;85.47;99001.44;6314382;20;2779609;-51
2023/03/26 04:57:03;;;;;;;;;4.00;2.50;;;;;6.76;84.64;98995.91;6297018;20;1814015;-50
2023/03/26 04:59:34;;;;;;;;;3.00;3.00;;;;;6.75;84.41;99002.19;6326637;20;1811171;-49
2023/03/26 05:02:07;;;;;;;;;2.00;2.00;;;;;6.82;84.37;99011.56;6325539;20;1818130;-54
2023/03/26 05:04:38;;;;;;;;;1.00;1.00;;;;;6.76;84.89;99013.72;6310843;20;3437809;-51
2023/03/26 05:07:08;;;;;;;;;2.00;1.00;;;;;7.47;83.00;99013.16;6331077;20;1820698;-51
2023/03/26 05:09:36;;;;;;;;;2.00;2.00;;;;;7.61;80.29;99020.31;6325798;20;1820221;-54
2023/03/26 05:12:05;;;;;;;;;2.00;2.00;;;;;7.57;80.95;99022.31;6332740;20;1811854;-51
2023/03/26 05:14:36;;;;;;;;;3.00;1.25;;;;;8.03;78.90;99024.88;6352332;20;2575372;-52
2023/03/26 05:17:05;;;;;;;;;3.00;2.00;;;;;8.33;77.89;99030.13;6300426;20;1810833;-53
2023/03/26 05:19:32;;;;;;;;;2.00;2.00;;;;;8.01;78.22;99028.59;6315269;20;2740004;-54
2023/03/26 05:22:02;;;;;;;;;4.00;3.00;;;;;7.89;78.62;99024.84;6328739;20;1819117;-53
2023/03/26 05:24:30;;;;;;;;;4.00;3.25;;;;;8.98;76.00;99034.06;6327738;20;1822287;-53
2023/03/26 05:26:59;;;;;;;;;4.00;3.00;;;;;10.36;68.87;99031.84;6330455;20;1827480;-55
2023/03/26 05:29:27;;;;;;;;;2.50;2.00;;;;;8.94;72.47;99025.34;6329088;20;1816124;-55
2023/03/26 05:31:56;;;;;;;;;2.25;2.00;;;;;8.70;75.99;99024.28;6329311;20;1802365;-53
2023/03/26 05:34:25;;;;;;;;;2.00;2.00;;;;;9.54;72.56;99033.91;6312242;20;2744151;-53
2023/03/26 05:36:53;;;;;;;;;2.00;2.00;;;;;9.16;72.58;99035.53;6314462;20;2739924;-54
2023/03/26 05:39:25;;;;;;;;;1.75;1.75;;;;;9.26;73.11;99035.75;6329252;20;1803541;-52
2023/03/26 05:41:53;;;;;;;;;2.00;2.00;;;;;9.59;71.46;99032.63;6312853;20;2744126;-53
2023/03/26 05:44:21;;;;;;;;;1.00;1.00;;;;;9.32;72.19;99034.47;6334422;20;1805550;-50
2023/03/26 05:46:50;;;;;;;;;2.00;2.00;;;;;9.23;73.71;99030.59;6318736;20;2732645;-51
2023/03/26 05:49:18;;;;;;;;;2.00;2.00;;;;;9.09;73.81;99038.72;6335730;20;1809775;-53
2023/03/26 05:51:47;;;;;;;;;1.75;1.25;;;;;8.88;73.67;99032.94;6332068;20;1809829;-52
2023/03/26 05:54:15;;;;;;;;;1.75;1.75;;;;;9.13;72.90;99037.53;6334106;20;1803426;-53
2023/03/26 05:56:43;;;;;;;;;2.00;2.00;;;;;9.50;70.95;99032.38;6317719;20;2751389;-53
2023/03/26 05:59:15;;;;;;;;;2.00;2.00;;;;;10.07;68.11;99038.25;6288031;20;2746104;-50
2023/03/26 06:01:44;;;;;;;;;3.25;3.25;;;;;10.75;66.32;99034.31;6300234;20;1812897;-53
2023/03/26 06:04:14;;;;;;;;;6.00;4.00;;;;;10.39;66.77;99036.97;6315342;20;2754481;-54
2023/03/26 06:06:43;;;;;;;;;4.75;4.25;;;;;10.77;65.72;99031.53;6301236;20;1811868;-51
2023/03/26 06:09:12;;;;;;;;;3.50;3.50;;;;;11.27;64.09;99031.44;6318263;20;2752429;-50
2023/03/26 06:11:40;;;;;;;;;2.00;2.00;;;;;13.67;55.34;99032.13;6284108;20;2748187;-52
2023/03/26 06:14:08;;;;;;;;;2.00;2.00;;;;;13.30;55.75;99040.59;6285709;20;2739968;-55
2023/03/26 06:16:37;;;;;;;;;2.00;2.00;;;;;13.36;55.25;99030.13;6284438;20;2730516;-53
2023/03/26 06:19:04;;;;;;;;;4.50;3.00;;;;;12.64;57.45;99033.34;6286979;20;2743020;-55
2023/03/26 06:21:32;;;;;;;;;3.00;3.00;;;;;14.11;54.09;99039.06;6285371;20;2737791;-52
2023/03/26 06:24:00;;;;;;;;;4.00;3.00;;;;;16.18;48.61;99031.13;6283488;20;2743104;-54
2023/03/26 06:26:28;;;;;;;;;2.00;2.00;;;;;17.93;43.25;99042.84;6285849;20;2749351;-55
2023/03/26 06:28:55;;;;;;;;;1.00;1.00;;;;;17.49;42.90;99048.22;6287351;20;2726345;-55
2023/03/26 06:31:23;;;;;;;;;1.00;1.00;;;;;19.65;38.27;99054.59;6287881;20;2717100;-54
2023/03/26 06:33:52;;;;;;;;;1.00;1.00;;;;;21.80;35.17;99057.44;6290843;20;2727437;-57
2023/03/26 06:36:19;;;;;;;;;0.00;0.00;;;;;22.09;32.73;99046.63;6291344;20;2727368;-54
2023/03/26 06:38:48;;;;;;;;;0.00;0.00;;;;;22.20;32.99;99053.59;6294763;20;2727420;-56
2023/03/26 06:41:16;;;;;;;;;2.00;0.00;;;;;23.56;30.34;99054.22;6319076;20;2727409;-58
2023/03/26 06:43:45;;;;;;;;;0.67;0.67;;;;;21.55;33.07;99057.63;6318024;20;2730525;-58
2023/03/26 06:46:14;;;;;;;;;0.00;0.00;;;;;21.72;32.19;99060.25;6320093;20;2731527;-56
2023/03/26 06:48:43;;;;;;;;;0.00;0.00;;;;;21.95;32.52;99058.34;6318811;20;2727363;-58
2023/03/26 06:51:11;;;;;;;;;1.00;1.00;;;;;22.26;31.66;99062.94;6319173;20;2728412;-57
2023/03/26 06:53:40;;;;;;;;;1.33;0.00;;;;;22.08;31.98;99060.47;6317136;20;2728424;-58
2023/03/26 06:56:09;;;;;;;;;0.00;0.00;;;;;22.07;31.47;99072.47;6320819;20;2727345;-58
2023/03/26 06:58:37;;;;;;;;;0.67;0.67;;;;;22.72;30.73;99063.66;6317693;20;2733600;-58
2023/03/26 07:01:06;;;;;;;;;0.00;0.00;;;;;23.01;30.42;99064.69;6318665;20;2726489;-58
2023/03/26 07:03:36;;;;;;;;;3.00;0.00;;;;;22.16;32.01;99051.34;6340587;20;2735709;-55
2023/03/26 07:06:05;;;;;;;;;1.00;0.33;;;;;21.38;32.42;99053.28;6320516;20;2729969;-55
2023/03/26 07:08:34;;;;;;;;;1.00;1.00;;;;;22.09;31.52;99063.03;6320127;20;2718062;-58
2023/03/26 07:11:02;;;;;;;;;2.00;0.33;;;;;23.70;30.42;99053.34;6319259;20;2733646;-57
2023/03/26 07:13:31;;;;;;;;;1.00;1.00;;;;;23.75;29.04;99064.59;6320838;20;2718499;-57
2023/03/26 07:15:59;;;;;;;;;3.67;1.00;;;;;23.43;29.24;99064.00;6320847;20;2735701;-58
2023/03/26 07:18:28;;;;;;;;;1.00;1.00;;;;;23.69;29.52;99068.06;6322384;20;2725295;-58
2023/03/26 07:20:57;;;;;;;;;1.00;1.00;;;;;23.75;29.83;99072.81;6320189;20;2733661;-58
2023/03/26 07:23:26;;;;;;;;;1.00;1.00;;;;;24.22;29.76;99065.03;6316813;20;2733691;-57
2023/03/26 07:25:55;;;;;;;;;1.00;1.00;;;;;19.43;36.08;99046.06;6317821;20;2730546;-57
2023/03/26 07:28:41;;;;;;;;;2.00;1.00;;;;;17.34;42.20;99037.88;6320739;20;2732588;-57
2023/03/26 07:32:33;;;;;;;;;2.00;1.00;;;;;15.59;45.18;99026.75;6318076;20;2724251;-56
2023/03/26 07:35:19;;;;;;;;;1.00;1.00;;;;;16.49;44.89;99036.31;6285569;20;2728073;-55
2023/03/26 07:38:26;;;;;;;;;3.00;1.00;;;;;15.90;44.96;99022.03;6288465;20;2750404;-57
2023/03/26 07:41:29;;;;;;;;;1.50;1.00;;;;;16.29;44.85;99026.53;6281115;20;2727568;-57
2023/03/26 07:44:00;;;;;;;;;2.50;1.00;;;;;15.77;45.59;99021.47;6285459;20;2730588;-55
2023/03/26 07:46:35;;;;;;;;;4.50;2.00;;;;;15.76;44.82;99017.94;6288510;20;2753407;-57
2023/03/26 07:49:04;;;;;;;;;0.00;0.00;;;;;15.57;44.92;99017.91;6289723;20;2730638;-55
2023/03/26 07:51:33;;;;;;;;;1.00;1.00;;;;;16.14;43.70;99020.72;6286493;20;2746112;-54
2023/03/26 07:54:03;;;;;;;;;2.00;1.00;;;;;15.48;44.44;99014.22;6291785;20;2735690;-52
2023/03/26 07:56:56;;;;;;;;;1.50;1.00;;;;;16.20;43.99;99022.84;6289412;20;2747153;-56
2023/03/26 07:59:56;;;;;;;;;1.50;0.00;;;;;15.95;44.94;99025.16;6287603;20;2724453;-55
2023/03/26 08:03:08;;;;;;;;;0.00;0.00;;;;;16.33;44.72;99028.81;6288569;20;2735830;-54
2023/03/26 08:06:10;;;;;;;;;2.00;0.00;;;;;16.95;43.63;99028.28;6287695;20;2727504;-57
2023/03/26 08:09:28;;;;;;;;;3.00;1.00;;;;;15.65;45.95;99036.16;6289393;20;2729612;-56
2023/03/26 08:12:46;;;;;;;;;0.00;0.00;;;;;15.93;45.83;99027.19;6286593;20;2729574;-55
2023/03/26 08:15:52;;;;;;;;;0.00;0.00;;;;;15.42;46.48;99022.03;6290515;20;2727403;-57
2023/03/26 08:18:55;;;;;;;;;1.00;1.00;;;;;14.98;47.69;99029.66;6286696;20;2727455;-57
2023/03/26 08:21:26;;;;;;;;;2.00;2.00;;;;;16.14;47.04;99036.97;6283921;20;2743034;-55
2023/03/26 08:24:26;;;;;;;;;2.00;2.00;;;;;15.50;46.99;99036.56;6286129;20;2745157;-56
2023/03/26 08:27:24;;;;;;;;;1.00;1.00;;;;;15.75;47.20;99039.75;6288311;20;2735826;-54
2023/03/26 08:30:18;;;;;;;;;2.00;2.00;;;;;15.36;48.04;99035.13;6285220;20;2744043;-56
2023/03/26 08:33:03;;;;;;;;;1.00;1.00;;;;;15.48;48.31;99037.69;6320562;20;2464897;-52
2023/03/26 08:35:33;;;;;;;;;1.00;1.00;;;;;15.66;48.25;99036.00;6316625;20;2724279;-55
2023/03/26 08:38:02;;;;;;;;;2.00;2.00;;;;;15.71;47.46;99032.91;6281380;20;2742149;-55
2023/03/26 08:41:07;;;;;;;;;2.00;2.00;;;;;14.98;47.55;99035.94;6282748;20;2746119;-55
2023/03/26 08:44:27;;;;;;;;;2.50;1.50;;;;;16.80;46.21;99030.66;6281451;20;2744095;-57
2023/03/26 08:47:41;;;;;;;;;3.00;2.00;;;;;16.53;45.77;99028.72;6283234;20;2746185;-52
2023/03/26 08:51:11;;;;;;;;;3.00;2.00;;;;;16.00;47.59;99017.47;6279901;20;2752413;-55
2023/03/26 08:54:59;;;;;;;;;1.00;1.00;;;;;16.57;48.51;99019.31;6296631;20;1798465;-56
2023/03/26 08:57:57;;;;;;;;;3.00;2.00;;;;;15.47;49.66;99020.63;6314968;20;2755619;-57
2023/03/26 09:01:24;;;;;;;;;4.00;3.00;;;;;14.91;51.88;99015.84;6285651;20;2748238;-56
2023/03/26 09:04:28;;;;;;;;;7.00;3.00;;;;;14.68;52.68;99018.75;6286106;20;2741949;-57
2023/03/26 09:07:44;;;;;;;;;2.00;2.00;;;;;14.61;50.20;99017.63;6307340;20;2744051;-58
2023/03/26 09:10:45;;;;;;;;;1.00;1.00;;;;;14.83;50.52;99021.09;6313777;20;2744097;-56
2023/03/26 09:14:00;;;;;;;;;1.00;1.00;;;;;14.15;51.89;99027.03;6319563;20;2733734;-53
2023/03/26 09:17:13;;;;;;;;;3.00;3.00;;;;;14.28;51.38;99016.84;6315867;20;2743282;-57
2023/03/26 09:20:07;;;;;;;;;6.00;2.00;;;;;14.28;52.30;99016.84;6287328;20;2748340;-56
2023/03/26 09:23:11;;;;;;;;;1.00;1.00;;;;;13.83;52.35;99006.38;6289545;20;2727424;-56
2023/03/26 09:25:50;;;;;;;;;3.00;3.00;;;;;14.67;50.55;99000.84;6286980;20;2746214;-55
2023/03/26 09:29:04;;;;;;;;;2.00;2.00;;;;;15.01;49.43;98995.09;6287782;20;2750392;-56
2023/03/26 09:32:12;;;;;;;;;2.00;2.00;;;;;14.87;48.72;98996.34;6288577;20;2737791;-57
2023/03/26 09:35:17;;;;;;;;;1.00;1.00;;;;;15.40;46.88;99005.94;6288417;20;2737803;-54
2023/03/26 09:38:53;;;;;;;;;2.00;2.00;;;;;16.30;45.14;99007.44;6291782;20;2737817;-56
2023/03/26 09:42:05;;;;;;;;;1.00;1.00;;;;;15.92;45.64;98990.25;6288982;20;2723222;-56
2023/03/26 09:44:54;;;;;;;;;1.00;1.00;;;;;16.08;45.15;98996.94;6288993;20;2720086;-56
2023/03/26 09:47:40;;;;;;;;;2.00;2.00;;;;;15.38;46.72;98991.72;6287567;20;2734667;-55
2023/03/26 09:50:51;;;;;;;;;2.00;2.00;;;;;16.31;45.97;98984.75;6290684;20;2734716;-57
2023/03/26 09:53:52;;;;;;;;;2.00;2.00;;;;;16.25;44.73;98990.75;6283728;20;2739867;-58
2023/03/26 09:56:48;;;;;;;;;0.00;0.00;;;;;16.54;43.63;98987.09;6290761;20;2725356;-58
2023/03/26 10:00:37;;;;;;;;;3.00;1.00;;;;;17.42;41.71;98992.84;6291123;20;2723254;-57
2023/03/26 10:03:36;;;;;;;;;3.00;3.00;;;;;18.43;40.36;98993.25;6286645;20;2754628;-58
2023/03/26 10:06:43;;;;;;;;;2.00;1.00;;;;;17.71;40.05;98977.13;6292487;20;2726773;-56
2023/03/26 10:10:17;;;;;;;;;1.00;1.00;;;;;18.81;38.69;98980.22;6291999;20;2723338;-58
2023/03/26 10:13:50;;;;;;;;;1.00;1.00;;;;;18.32;38.83;98977.22;6293578;20;2723478;-58
2023/03/26 10:17:03;;;;;;;;;1.00;1.00;;;;;18.60;39.24;98969.72;6296955;20;2731532;-58
2023/03/26 10:20:11;;;;;;;;;1.00;1.00;;;;;17.14;40.01;98960.34;6322131;20;2727595;-57
2023/03/26 10:23:31;;;;;;;;;1.00;1.00;;;;;17.78;39.63;98961.06;6293987;20;2727475;-58
2023/03/26 10:26:50;;;;;;;;;2.50;1.00;;;;;17.84;40.44;98943.31;6290048;20;2733628;-58
2023/03/26 10:30:22;;;;;;;;;1.50;1.50;;;;;17.50;40.82;98936.75;6285102;20;2737892;-58
2023/03/26 10:33:05;;;;;;;;;2.00;2.00;;;;;17.01;42.05;98922.75;6290501;20;2738897;-56
2023/03/26 10:36:31;;;;;;;;;3.50;3.00;;;;;17.55;41.30;98928.16;6289705;20;2752369;-57
2023/03/26 10:39:22;;;;;;;;;2.00;2.00;;;;;15.90;44.09;98927.28;6289469;20;2731537;-59
2023/03/26 10:42:39;;;;;;;;;2.00;0.75;;;;;16.21;43.96;98916.19;6302587;20;1803629;-56
2023/03/26 10:46:11;;;;;;;;;0.00;0.00;;;;;15.62;45.48;98901.97;6320358;20;2733713;-57
2023/03/26 10:49:15;;;;;;;;;3.00;1.00;;;;;15.66;45.70;98897.13;6285162;20;2755494;-53
2023/03/26 10:52:09;;;;;;;;;0.50;0.50;;;;;16.21;44.84;98894.53;6300165;20;1798288;-55
2023/03/26 10:54:55;;;;;;;;;6.00;5.00;;;;;15.94;44.33;98889.97;6312873;20;2748239;-57
2023/03/26 10:57:36;;;;;;;;;2.00;2.00;;;;;15.69;45.47;98891.44;6285908;20;2737907;-52
2023/03/26 11:00:26;;;;;;;;;3.00;3.00;;;;;15.34;46.00;98891.06;6286350;20;2755532;-57
2023/03/26 11:03:18;;;;;;;;;2.00;2.00;;;;;15.01;47.44;98888.78;6286879;20;2746122;-53
2023/03/26 11:06:30;;;;;;;;;3.00;3.00;;;;;14.99;48.96;98897.06;6287975;20;2753877;-55
2023/03/26 11:09:37;;;;;;;;;3.50;1.00;;;;;13.71;53.23;98915.69;6289906;20;2752379;-53
2023/03/26 11:12:18;;;;;;;;;1.00;1.00;;;;;12.96;68.21;98952.56;6286480;20;2744026;-55
2023/03/26 11:15:18;;;;;;;;;1.00;1.00;;;;;12.94;69.95;98941.06;6287161;20;2727858;-56
2023/03/26 11:18:18;;;;;;;;;2.00;0.00;;;;;12.69;71.90;98922.53;6292475;20;2728505;-55
2023/03/26 11:21:22;;;;;;;;;1.25;1.25;;;;;13.05;68.13;98913.22;6294066;20;1800381;-56
2023/03/26 11:24:30;;;;;;;;;1.00;1.00;;;;;13.60;65.61;98896.91;6316660;20;2731548;-53
2023/03/26 11:27:15;;;;;;;;;3.00;2.00;;;;;14.38;63.40;98879.19;6284506;20;2722171;-54
2023/03/26 11:30:21;;;;;;;;;0.00;0.00;;;;;14.70;57.63;98867.31;6294955;20;1793635;-57
2023/03/26 11:32:56;;;;;;;;;1.00;1.00;;;;;15.57;55.18;98871.81;6316276;20;2727389;-52
2023/03/26 11:35:35;;;;;;;;;1.00;1.00;;;;;15.75;57.22;98858.41;6285839;20;2727769;-55
2023/03/26 11:38:28;;;;;;;;;2.00;0.00;;;;;16.09;55.06;98861.41;6287235;20;2731565;-54
2023/03/26 11:40:59;;;;;;;;;0.00;0.00;;;;;16.29;53.73;98845.03;6284133;20;2730570;-54
2023/03/26 11:43:35;;;;;;;;;0.00;0.00;;;;;15.52;50.10;98838.91;6283914;20;2733677;-51
2023/03/26 11:46:14;;;;;;;;;0.00;0.00;;;;;15.53;51.64;98838.78;6287709;20;2727361;-55
2023/03/26 11:49:09;;;;;;;;;5.00;5.00;;;;;15.67;53.13;98836.59;6283651;20;2741967;-56
2023/03/26 11:51:40;;;;;;;;;4.00;4.00;;;;;15.87;53.06;98827.41;6276949;20;2755548;-55
2023/03/26 11:54:11;;;;;;;;;1.00;1.00;;;;;15.67;51.96;98823.91;6285194;20;2723251;-57
2023/03/26 11:56:57;;;;;;;;;0.50;0.50;;;;;15.33;53.24;98823.59;6284176;20;2733621;-57
2023/03/26 11:59:56;;;;;;;;;3.00;2.00;;;;;15.72;55.37;98812.69;6281592;20;2755574;-53
2023/03/26 12:02:34;;;;;;;;;2.00;2.00;;;;;15.50;52.98;98808.44;6300992;20;1799326;-55
2023/03/26 12:05:23;;;;;;;;;2.00;2.00;;;;;15.78;54.32;98803.97;6315999;20;2740299;-54
2023/03/26 12:08:38;;;;;;;;;1.00;1.00;;;;;16.51;51.23;98790.41;6283277;20;2739983;-55
2023/03/26 12:11:11;;;;;;;;;2.00;2.00;;;;;16.24;50.56;98794.00;6285417;20;2750313;-54
2023/03/26 12:14:01;;;;;;;;;2.00;2.00;;;;;16.50;50.59;98788.69;6284770;20;2744043;-56
2023/03/26 12:16:30;;;;;;;;;3.50;1.00;;;;;16.92;48.84;98789.97;6283397;20;2744049;-54
2023/03/26 12:19:18;;;;;;;;;4.00;2.00;;;;;16.51;50.35;98781.41;6289501;20;2738912;-56
2023/03/26 12:21:51;;;;;;;;;2.00;2.00;;;;;16.42;50.59;98781.34;6282437;20;2744168;-55
2023/03/26 12:24:34;;;;;;;;;4.00;3.00;;;;;16.60;48.95;98780.50;6283724;20;2749249;-55
2023/03/26 12:27:24;;;;;;;;;2.00;2.00;;;;;17.01;48.01;98767.31;6285496;20;2742375;-57